sensor_id;sensor_type;location;lat;lon;timestamp;pressure;altitude;pressure_sealevel;temperature;humidity
53546;BME280;39432;51.902;10.844;2023-04-15T00:01:04;98745.59;;;7.95;100.00
53546;BME280;39432;51.902;10.844;2023-04-15T00:03:34;98738.88;;;7.71;100.00
53546;BME280;39432;51.902;10.844;2023-04-15T00:06:04;98734.75;;;7.68;100.00
53546;BME280;39432;51.902;10.844;2023-04-15T00:08:34;98744.16;;;7.50;100.00
53546;BME280;39432;51.902;10.844;2023-04-15T00:11:04;98738.72;;;7.50;100.00
53546;BME280;39432;51.902;10.844;2023-04-15T00:13:34;98738.06;;;7.70;100.00
53546;BME280;39432;51.902;10.844;2023-04-15T00:16:07;98742.03;;;7.57;100.00
53546;BME280;39432;51.902;10.844;2023-04-15T00:18:37;98743.66;;;7.90;100.00
53546;BME280;39432;51.902;10.844;2023-04-15T00:21:07;98743.13;;;7.56;100.00
53546;BME280;39432;51.902;10.844;2023-04-15T00:23:37;98732.91;;;7.74;100.00
53546;BME280;39432;51.902;10.844;2023-04-15T00:26:07;98739.91;;;8.02;100.00
53546;BME280;39432;51.902;10.844;2023-04-15T00:28:37;98731.50;;;8.03;100.00
53546;BME280;39432;51.902;10.844;2023-04-15T00:31:10;98729.72;;;7.82;100.00
53546;BME280;39432;51.902;10.844;2023-04-15T00:33:40;98729.31;;;7.68;100.00
53546;BME280;39432;51.902;10.844;2023-04-15T00:36:09;98723.59;;;7.64;100.00
53546;BME280;39432;51.902;10.844;2023-04-15T00:38:39;98726.94;;;7.77;100.00
53546;BME280;39432;51.902;10.844;2023-04-15T00:41:09;98720.72;;;7.81;100.00
53546;BME280;39432;51.902;10.844;2023-04-15T00:43:39;98720.84;;;7.59;100.00
53546;BME280;39432;51.902;10.844;2023-04-15T00:46:12;98721.50;;;7.77;100.00
53546;BME280;39432;51.902;10.844;2023-04-15T00:48:44;98716.44;;;7.53;100.00
53546;BME280;39432;51.902;10.844;2023-04-15T00:51:15;98719.63;;;7.45;100.00
53546;BME280;39432;51.902;10.844;2023-04-15T00:53:45;98716.41;;;7.21;100.00
53546;BME280;39432;51.902;10.844;2023-04-15T00:56:14;98719.03;;;7.38;100.00
53546;BME280;39432;51.902;10.844;2023-04-15T00:58:44;98716.63;;;7.15;100.00
53546;BME280;39432;51.902;10.844;2023-04-15T01:01:17;98722.16;;;7.25;100.00
53546;BME280;39432;51.902;10.844;2023-04-15T01:03:49;98715.22;;;7.39;100.00
53546;BME280;39432;51.902;10.844;2023-04-15T01:06:20;98719.09;;;7.48;100.00
53546;BME280;39432;51.902;10.844;2023-04-15T01:08:50;98713.03;;;7.41;100.00
53546;BME280;39432;51.902;10.844;2023-04-15T01:11:20;98719.41;;;7.25;100.00
53546;BME280;39432;51.902;10.844;2023-04-15T01:13:50;98717.47;;;7.47;100.00
53546;BME280;39432;51.902;10.844;2023-04-15T01:16:23;98718.47;;;7.41;100.00
53546;BME280;39432;51.902;10.844;2023-04-15T01:18:53;98708.34;;;7.31;100.00
53546;BME280;39432;51.902;10.844;2023-04-15T01:21:24;98706.06;;;7.50;100.00
53546;BME280;39432;51.902;10.844;2023-04-15T01:23:54;98703.44;;;7.65;100.00
53546;BME280;39432;51.902;10.844;2023-04-15T01:26:28;98713.38;;;7.82;100.00
53546;BME280;39432;51.902;10.844;2023-04-15T01:28:58;98705.63;;;7.69;100.00
53546;BME280;39432;51.902;10.844;2023-04-15T01:31:28;98704.41;;;7.49;100.00
53546;BME280;39432;51.902;10.844;2023-04-15T01:33:58;98711.31;;;7.62;100.00
53546;BME280;39432;51.902;10.844;2023-04-15T01:36:46;98708.28;;;7.53;100.00
53546;BME280;39432;51.902;10.844;2023-04-15T01:39:17;98704.88;;;7.41;100.00
53546;BME280;39432;51.902;10.844;2023-04-15T01:41:49;98708.34;;;7.31;100.00
53546;BME280;39432;51.902;10.844;2023-04-15T01:44:20;98710.25;;;7.31;100.00
53546;BME280;39432;51.902;10.844;2023-04-15T01:46:51;98701.88;;;7.37;100.00
53546;BME280;39432;51.902;10.844;2023-04-15T01:49:22;98706.75;;;7.08;100.00
53546;BME280;39432;51.902;10.844;2023-04-15T01:51:54;98703.53;;;7.11;100.00
53546;BME280;39432;51.902;10.844;2023-04-15T01:54:25;98704.00;;;7.03;100.00
53546;BME280;39432;51.902;10.844;2023-04-15T01:56:58;98707.91;;;7.12;100.00
53546;BME280;39432;51.902;10.844;2023-04-15T01:59:30;98701.38;;;7.13;100.00
53546;BME280;39432;51.902;10.844;2023-04-15T02:02:01;98705.28;;;7.23;100.00
53546;BME280;39432;51.902;10.844;2023-04-15T02:04:32;98708.59;;;7.30;100.00
53546;BME280;39432;51.902;10.844;2023-04-15T02:07:03;98707.72;;;6.97;100.00
53546;BME280;39432;51.902;10.844;2023-04-15T02:09:35;98708.38;;;7.04;100.00
53546;BME280;39432;51.902;10.844;2023-04-15T02:12:11;98713.44;;;7.23;100.00
53546;BME280;39432;51.902;10.844;2023-04-15T02:14:42;98720.50;;;6.97;100.00
53546;BME280;39432;51.902;10.844;2023-04-15T02:17:13;98714.91;;;7.08;100.00
53546;BME280;39432;51.902;10.844;2023-04-15T02:19:44;98723.13;;;7.13;100.00
53546;BME280;39432;51.902;10.844;2023-04-15T02:22:15;98723.06;;;7.03;100.00
53546;BME280;39432;51.902;10.844;2023-04-15T02:24:46;98721.59;;;7.23;100.00
53546;BME280;39432;51.902;10.844;2023-04-15T02:27:20;98713.38;;;7.18;100.00
53546;BME280;39432;51.902;10.844;2023-04-15T02:29:51;98724.25;;;7.18;100.00
53546;BME280;39432;51.902;10.844;2023-04-15T02:32:21;98710.88;;;7.11;100.00
53546;BME280;39432;51.902;10.844;2023-04-15T02:34:55;98711.91;;;7.32;100.00
53546;BME280;39432;51.902;10.844;2023-04-15T02:37:26;98709.47;;;7.08;100.00
53546;BME280;39432;51.902;10.844;2023-04-15T02:39:58;98717.69;;;7.13;100.00
53546;BME280;39432;51.902;10.844;2023-04-15T02:42:32;98719.84;;;7.11;100.00
53546;BME280;39432;51.902;10.844;2023-04-15T02:45:04;98711.53;;;6.96;100.00
53546;BME280;39432;51.902;10.844;2023-04-15T02:47:35;98719.59;;;6.86;100.00
53546;BME280;39432;51.902;10.844;2023-04-15T02:50:09;98715.22;;;6.85;100.00
53546;BME280;39432;51.902;10.844;2023-04-15T02:52:42;98715.84;;;6.92;100.00
53546;BME280;39432;51.902;10.844;2023-04-15T02:55:13;98726.38;;;7.10;100.00
53546;BME280;39432;51.902;10.844;2023-04-15T02:57:47;98724.16;;;7.07;100.00
53546;BME280;39432;51.902;10.844;2023-04-15T03:00:18;98726.22;;;6.95;100.00
53546;BME280;39432;51.902;10.844;2023-04-15T03:02:57;98720.88;;;7.05;100.00
53546;BME280;39432;51.902;10.844;2023-04-15T03:05:28;98722.03;;;7.09;100.00
53546;BME280;39432;51.902;10.844;2023-04-15T03:08:01;98721.81;;;6.89;100.00
53546;BME280;39432;51.902;10.844;2023-04-15T03:10:32;98718.28;;;7.16;100.00
53546;BME280;39432;51.902;10.844;2023-04-15T03:13:05;98729.19;;;7.21;100.00
53546;BME280;39432;51.902;10.844;2023-04-15T03:15:36;98726.97;;;7.18;100.00
53546;BME280;39432;51.902;10.844;2023-04-15T03:18:07;98722.94;;;6.93;100.00
53546;BME280;39432;51.902;10.844;2023-04-15T03:20:38;98725.78;;;7.08;100.00
53546;BME280;39432;51.902;10.844;2023-04-15T03:23:09;98722.81;;;6.83;100.00
53546;BME280;39432;51.902;10.844;2023-04-15T03:25:40;98719.50;;;6.76;100.00
53546;BME280;39432;51.902;10.844;2023-04-15T03:28:14;98721.38;;;7.02;100.00
53546;BME280;39432;51.902;10.844;2023-04-15T03:30:45;98723.91;;;6.82;100.00
53546;BME280;39432;51.902;10.844;2023-04-15T03:33:16;98731.25;;;6.81;100.00
53546;BME280;39432;51.902;10.844;2023-04-15T03:35:47;98731.03;;;6.88;100.00
53546;BME280;39432;51.902;10.844;2023-04-15T03:38:18;98729.91;;;6.84;100.00
53546;BME280;39432;51.902;10.844;2023-04-15T03:40:48;98729.97;;;6.67;100.00
53546;BME280;39432;51.902;10.844;2023-04-15T03:43:22;98722.97;;;6.71;100.00
53546;BME280;39432;51.902;10.844;2023-04-15T03:45:53;98727.34;;;6.99;100.00
53546;BME280;39432;51.902;10.844;2023-04-15T03:48:26;98723.25;;;6.75;100.00
53546;BME280;39432;51.902;10.844;2023-04-15T03:50:57;98726.91;;;6.85;100.00
53546;BME280;39432;51.902;10.844;2023-04-15T03:53:27;98728.09;;;6.68;100.00
53546;BME280;39432;51.902;10.844;2023-04-15T03:55:58;98727.00;;;6.69;100.00
53546;BME280;39432;51.902;10.844;2023-04-15T03:58:32;98724.75;;;6.60;100.00
53546;BME280;39432;51.902;10.844;2023-04-15T04:01:03;98726.94;;;6.64;100.00
53546;BME280;39432;51.902;10.844;2023-04-15T04:03:34;98738.75;;;6.52;100.00
53546;BME280;39432;51.902;10.844;2023-04-15T04:06:05;98731.69;;;6.51;100.00
53546;BME280;39432;51.902;10.844;2023-04-15T04:08:36;98728.22;;;6.56;100.00
53546;BME280;39432;51.902;10.844;2023-04-15T04:11:07;98730.19;;;6.60;100.00
53546;BME280;39432;51.902;10.844;2023-04-15T04:13:40;98741.25;;;6.54;100.00
53546;BME280;39432;51.902;10.844;2023-04-15T04:16:11;98742.13;;;6.59;100.00
53546;BME280;39432;51.902;10.844;2023-04-15T04:18:42;98740.53;;;6.64;100.00
53546;BME280;39432;51.902;10.844;2023-04-15T04:21:13;98744.66;;;6.66;100.00
53546;BME280;39432;51.902;10.844;2023-04-15T04:23:44;98741.88;;;6.61;100.00
53546;BME280;39432;51.902;10.844;2023-04-15T04:26:15;98752.41;;;6.79;100.00
53546;BME280;39432;51.902;10.844;2023-04-15T04:28:49;98756.38;;;6.94;100.00
53546;BME280;39432;51.902;10.844;2023-04-15T04:31:20;98756.53;;;6.82;100.00
53546;BME280;39432;51.902;10.844;2023-04-15T04:33:51;98754.94;;;6.86;100.00
53546;BME280;39432;51.902;10.844;2023-04-15T04:36:22;98751.78;;;6.94;100.00
53546;BME280;39432;51.902;10.844;2023-04-15T04:38:53;98751.66;;;6.84;100.00
53546;BME280;39432;51.902;10.844;2023-04-15T04:41:24;98747.72;;;6.75;100.00
53546;BME280;39432;51.902;10.844;2023-04-15T04:43:58;98746.22;;;6.84;100.00
53546;BME280;39432;51.902;10.844;2023-04-15T04:46:29;98742.69;;;6.62;100.00
53546;BME280;39432;51.902;10.844;2023-04-15T04:48:59;98753.44;;;6.73;100.00
53546;BME280;39432;51.902;10.844;2023-04-15T04:51:30;98751.97;;;6.88;100.00
53546;BME280;39432;51.902;10.844;2023-04-15T04:54:02;98746.09;;;6.74;100.00
53546;BME280;39432;51.902;10.844;2023-04-15T04:56:33;98752.06;;;6.71;100.00
53546;BME280;39432;51.902;10.844;2023-04-15T04:59:08;98743.00;;;6.87;100.00
53546;BME280;39432;51.902;10.844;2023-04-15T05:01:40;98750.00;;;6.83;100.00
53546;BME280;39432;51.902;10.844;2023-04-15T05:04:11;98750.41;;;6.97;100.00
53546;BME280;39432;51.902;10.844;2023-04-15T05:06:42;98751.97;;;6.88;100.00
53546;BME280;39432;51.902;10.844;2023-04-15T05:09:13;98754.44;;;6.89;100.00
53546;BME280;39432;51.902;10.844;2023-04-15T05:11:44;98753.22;;;6.80;100.00
53546;BME280;39432;51.902;10.844;2023-04-15T05:14:17;98755.50;;;6.88;100.00
53546;BME280;39432;51.902;10.844;2023-04-15T05:16:50;98753.81;;;6.82;100.00
53546;BME280;39432;51.902;10.844;2023-04-15T05:19:21;98751.03;;;6.77;100.00
53546;BME280;39432;51.902;10.844;2023-04-15T05:21:52;98747.84;;;6.85;100.00
53546;BME280;39432;51.902;10.844;2023-04-15T05:24:23;98749.69;;;6.79;100.00
53546;BME280;39432;51.902;10.844;2023-04-15T05:26:54;98739.13;;;6.83;100.00
53546;BME280;39432;51.902;10.844;2023-04-15T05:29:28;98742.94;;;6.82;100.00
53546;BME280;39432;51.902;10.844;2023-04-15T05:31:59;98746.09;;;6.74;100.00
53546;BME280;39432;51.902;10.844;2023-04-15T05:34:30;98747.84;;;6.85;100.00
53546;BME280;39432;51.902;10.844;2023-04-15T05:37:01;98760.19;;;6.93;100.00
53546;BME280;39432;51.902;10.844;2023-04-15T05:39:32;98763.03;;;6.81;100.00
53546;BME280;39432;51.902;10.844;2023-04-15T05:42:03;98775.56;;;6.82;100.00
53546;BME280;39432;51.902;10.844;2023-04-15T05:44:37;98781.34;;;6.91;100.00
53546;BME280;39432;51.902;10.844;2023-04-15T05:47:08;98776.56;;;6.76;100.00
53546;BME280;39432;51.902;10.844;2023-04-15T05:49:39;98778.84;;;6.84;100.00
53546;BME280;39432;51.902;10.844;2023-04-15T05:52:10;98768.84;;;6.68;100.00
53546;BME280;39432;51.902;10.844;2023-04-15T05:54:41;98787.94;;;6.73;100.00
53546;BME280;39432;51.902;10.844;2023-04-15T05:57:12;98784.75;;;6.81;100.00
53546;BME280;39432;51.902;10.844;2023-04-15T05:59:45;98790.44;;;7.01;100.00
53546;BME280;39432;51.902;10.844;2023-04-15T06:02:18;98788.56;;;6.80;100.00
53546;BME280;39432;51.902;10.844;2023-04-15T06:04:49;98786.94;;;6.79;100.00
53546;BME280;39432;51.902;10.844;2023-04-15T06:07:20;98805.19;;;6.83;100.00
53546;BME280;39432;51.902;10.844;2023-04-15T06:09:51;98815.88;;;6.90;100.00
53546;BME280;39432;51.902;10.844;2023-04-15T06:12:22;98813.97;;;7.12;100.00
53546;BME280;39432;51.902;10.844;2023-04-15T06:14:56;98818.78;;;7.05;100.00
53546;BME280;39432;51.902;10.844;2023-04-15T06:17:27;98814.03;;;6.96;100.00
53546;BME280;39432;51.902;10.844;2023-04-15T06:19:58;98802.81;;;6.87;100.00
53546;BME280;39432;51.902;10.844;2023-04-15T06:22:29;98799.44;;;6.80;100.00
53546;BME280;39432;51.902;10.844;2023-04-15T06:25:00;98804.81;;;6.75;100.00
53546;BME280;39432;51.902;10.844;2023-04-15T06:27:29;98815.81;;;6.85;100.00
53546;BME280;39432;51.902;10.844;2023-04-15T06:30:04;98813.84;;;7.02;100.00
53546;BME280;39432;51.902;10.844;2023-04-15T06:32:35;98812.59;;;6.88;100.00
53546;BME280;39432;51.902;10.844;2023-04-15T06:35:07;98813.28;;;6.78;100.00
53546;BME280;39432;51.902;10.844;2023-04-15T06:37:38;98829.13;;;7.08;100.00
53546;BME280;39432;51.902;10.844;2023-04-15T06:40:10;98840.34;;;7.12;100.00
53546;BME280;39432;51.902;10.844;2023-04-15T06:42:41;98865.22;;;7.21;100.00
53546;BME280;39432;51.902;10.844;2023-04-15T06:45:14;98871.47;;;7.21;100.00
53546;BME280;39432;51.902;10.844;2023-04-15T06:47:45;98860.88;;;7.25;100.00
53546;BME280;39432;51.902;10.844;2023-04-15T06:50:16;98853.69;;;7.13;100.00
53546;BME280;39432;51.902;10.844;2023-04-15T06:52:47;98851.72;;;7.31;100.00
53546;BME280;39432;51.902;10.844;2023-04-15T06:55:18;98847.41;;;7.35;100.00
53546;BME280;39432;51.902;10.844;2023-04-15T06:57:49;98842.44;;;7.27;100.00
53546;BME280;39432;51.902;10.844;2023-04-15T07:00:23;98836.53;;;7.13;100.00
53546;BME280;39432;51.902;10.844;2023-04-15T07:02:55;98838.13;;;7.31;100.00
53546;BME280;39432;51.902;10.844;2023-04-15T07:05:27;98837.59;;;7.34;100.00
53546;BME280;39432;51.902;10.844;2023-04-15T07:07:59;98841.66;;;7.31;100.00
53546;BME280;39432;51.902;10.844;2023-04-15T07:10:30;98835.75;;;7.39;100.00
53546;BME280;39432;51.902;10.844;2023-04-15T07:13:01;98840.38;;;7.39;100.00
53546;BME280;39432;51.902;10.844;2023-04-15T07:15:35;98837.31;;;7.08;100.00
53546;BME280;39432;51.902;10.844;2023-04-15T07:18:06;98841.78;;;7.20;100.00
53546;BME280;39432;51.902;10.844;2023-04-15T07:20:37;98839.53;;;7.11;100.00
53546;BME280;39432;51.902;10.844;2023-04-15T07:23:08;98841.69;;;7.09;100.00
53546;BME280;39432;51.902;10.844;2023-04-15T07:25:39;98845.97;;;7.05;100.00
53546;BME280;39432;51.902;10.844;2023-04-15T07:28:10;98843.88;;;7.12;100.00
53546;BME280;39432;51.902;10.844;2023-04-15T07:30:43;98841.28;;;7.23;100.00
53546;BME280;39432;51.902;10.844;2023-04-15T07:33:14;98843.19;;;7.22;100.00
53546;BME280;39432;51.902;10.844;2023-04-15T07:35:45;98847.72;;;7.38;100.00
53546;BME280;39432;51.902;10.844;2023-04-15T07:38:17;98858.88;;;7.37;100.00
53546;BME280;39432;51.902;10.844;2023-04-15T07:40:47;98851.75;;;7.36;100.00
53546;BME280;39432;51.902;10.844;2023-04-15T07:43:18;98851.88;;;7.46;100.00
53546;BME280;39432;51.902;10.844;2023-04-15T07:45:52;98849.09;;;7.41;100.00
53546;BME280;39432;51.902;10.844;2023-04-15T07:48:23;98855.28;;;7.31;100.00
53546;BME280;39432;51.902;10.844;2023-04-15T07:50:54;98866.44;;;7.35;100.00
53546;BME280;39432;51.902;10.844;2023-04-15T07:53:25;98868.50;;;7.23;100.00
53546;BME280;39432;51.902;10.844;2023-04-15T07:55:56;98891.00;;;7.40;100.00
53546;BME280;39432;51.902;10.844;2023-04-15T07:58:27;98887.94;;;7.31;100.00
53546;BME280;39432;51.902;10.844;2023-04-15T08:01:01;98868.72;;;7.43;100.00
53546;BME280;39432;51.902;10.844;2023-04-15T08:03:32;98857.59;;;7.45;100.00
53546;BME280;39432;51.902;10.844;2023-04-15T08:06:03;98857.47;;;7.12;100.00
53546;BME280;39432;51.902;10.844;2023-04-15T08:08:34;98880.06;;;7.13;100.00
53546;BME280;39432;51.902;10.844;2023-04-15T08:11:05;98892.53;;;7.31;100.00
53546;BME280;39432;51.902;10.844;2023-04-15T08:13:36;98885.44;;;7.30;100.00
53546;BME280;39432;51.902;10.844;2023-04-15T08:16:19;98883.50;;;7.25;100.00
53546;BME280;39432;51.902;10.844;2023-04-15T08:18:51;98891.28;;;7.17;100.00
53546;BME280;39432;51.902;10.844;2023-04-15T08:21:23;98893.84;;;7.28;100.00
53546;BME280;39432;51.902;10.844;2023-04-15T08:23:54;98891.53;;;7.37;100.00
53546;BME280;39432;51.902;10.844;2023-04-15T08:26:25;98902.31;;;7.54;100.00
53546;BME280;39432;51.902;10.844;2023-04-15T08:28:56;98898.97;;;7.47;100.00
53546;BME280;39432;51.902;10.844;2023-04-15T08:31:30;98895.50;;;7.29;100.00
53546;BME280;39432;51.902;10.844;2023-04-15T08:34:01;98891.53;;;7.37;100.00
53546;BME280;39432;51.902;10.844;2023-04-15T08:36:32;98894.75;;;7.34;100.00
53546;BME280;39432;51.902;10.844;2023-04-15T08:39:03;98899.97;;;7.40;100.00
53546;BME280;39432;51.902;10.844;2023-04-15T08:41:39;98907.38;;;7.45;100.00
53546;BME280;39432;51.902;10.844;2023-04-15T08:44:11;98913.91;;;7.44;100.00
53546;BME280;39432;51.902;10.844;2023-04-15T08:46:46;98908.16;;;7.40;100.00
53546;BME280;39432;51.902;10.844;2023-04-15T08:49:18;98916.28;;;7.62;100.00
53546;BME280;39432;51.902;10.844;2023-04-15T08:51:51;98919.34;;;7.44;100.00
53546;BME280;39432;51.902;10.844;2023-04-15T08:54:23;98914.53;;;7.51;100.00
53546;BME280;39432;51.902;10.844;2023-04-15T08:56:56;98919.78;;;7.58;100.00
53546;BME280;39432;51.902;10.844;2023-04-15T08:59:29;98904.66;;;7.45;100.00
53546;BME280;39432;51.902;10.844;2023-04-15T09:02:02;98911.38;;;7.59;100.00
53546;BME280;39432;51.902;10.844;2023-04-15T09:04:33;98909.16;;;7.56;100.00
53546;BME280;39432;51.902;10.844;2023-04-15T09:07:04;98914.25;;;7.75;100.00
53546;BME280;39432;51.902;10.844;2023-04-15T09:09:35;98910.69;;;7.47;100.00
53546;BME280;39432;51.902;10.844;2023-04-15T09:12:07;98920.22;;;7.72;100.00
53546;BME280;39432;51.902;10.844;2023-04-15T09:14:39;98918.09;;;7.79;100.00
53546;BME280;39432;51.902;10.844;2023-04-15T09:17:12;98931.75;;;7.84;100.00
53546;BME280;39432;51.902;10.844;2023-04-15T09:19:43;98934.59;;;7.94;100.00
53546;BME280;39432;51.902;10.844;2023-04-15T09:22:14;98933.28;;;8.02;100.00
53546;BME280;39432;51.902;10.844;2023-04-15T09:24:45;98936.13;;;8.12;100.00
53546;BME280;39432;51.902;10.844;2023-04-15T09:27:16;98935.78;;;8.03;100.00
53546;BME280;39432;51.902;10.844;2023-04-15T09:29:49;98944.25;;;7.80;100.00
53546;BME280;39432;51.902;10.844;2023-04-15T09:32:22;98947.22;;;7.78;100.00
53546;BME280;39432;51.902;10.844;2023-04-15T09:34:53;98945.78;;;7.71;100.00
53546;BME280;39432;51.902;10.844;2023-04-15T09:37:34;98953.06;;;7.87;100.00
53546;BME280;39432;51.902;10.844;2023-04-15T09:40:06;98958.50;;;7.87;100.00
53546;BME280;39432;51.902;10.844;2023-04-15T09:42:53;98957.19;;;7.68;100.00
53546;BME280;39432;51.902;10.844;2023-04-15T09:45:24;98960.28;;;7.76;100.00
53546;BME280;39432;51.902;10.844;2023-04-15T09:48:14;98957.41;;;7.88;100.00
53546;BME280;39432;51.902;10.844;2023-04-15T09:50:46;98962.34;;;7.91;100.00
53546;BME280;39432;51.902;10.844;2023-04-15T09:53:19;98960.81;;;8.00;100.00
53546;BME280;39432;51.902;10.844;2023-04-15T09:55:51;98956.81;;;7.81;100.00
53546;BME280;39432;51.902;10.844;2023-04-15T09:58:24;98957.31;;;7.78;100.00
53546;BME280;39432;51.902;10.844;2023-04-15T10:00:57;98966.47;;;7.93;100.00
53546;BME280;39432;51.902;10.844;2023-04-15T10:03:32;98966.03;;;7.80;100.00
53546;BME280;39432;51.902;10.844;2023-04-15T10:06:04;98991.44;;;8.12;100.00
53546;BME280;39432;51.902;10.844;2023-04-15T10:08:36;98983.63;;;7.94;100.00
53546;BME280;39432;51.902;10.844;2023-04-15T10:11:07;98984.22;;;8.01;100.00
53546;BME280;39432;51.902;10.844;2023-04-15T10:13:38;98979.25;;;7.93;100.00
53546;BME280;39432;51.902;10.844;2023-04-15T10:16:10;98990.00;;;8.05;100.00
53546;BME280;39432;51.902;10.844;2023-04-15T10:18:45;98990.72;;;7.95;100.00
53546;BME280;39432;51.902;10.844;2023-04-15T10:21:17;98994.41;;;7.84;100.00
53546;BME280;39432;51.902;10.844;2023-04-15T10:23:50;98989.91;;;7.73;100.00
53546;BME280;39432;51.902;10.844;2023-04-15T10:26:21;98991.81;;;7.72;100.00
53546;BME280;39432;51.902;10.844;2023-04-15T10:28:52;99011.19;;;7.76;100.00
53546;BME280;39432;51.902;10.844;2023-04-15T10:31:26;99009.59;;;7.80;100.00
53546;BME280;39432;51.902;10.844;2023-04-15T10:34:01;99022.06;;;7.98;100.00
53546;BME280;39432;51.902;10.844;2023-04-15T10:36:33;99022.00;;;8.14;100.00
53546;BME280;39432;51.902;10.844;2023-04-15T10:39:42;99019.44;;;8.30;100.00
53546;BME280;39432;51.902;10.844;2023-04-15T10:42:15;99024.91;;;8.35;100.00
53546;BME280;39432;51.902;10.844;2023-04-15T10:44:48;99026.00;;;8.34;100.00
53546;BME280;39432;51.902;10.844;2023-04-15T10:47:20;99022.28;;;8.18;100.00
53546;BME280;39432;51.902;10.844;2023-04-15T10:49:58;99017.25;;;8.32;100.00
53546;BME280;39432;51.902;10.844;2023-04-15T10:52:29;99024.53;;;7.99;100.00
53546;BME280;39432;51.902;10.844;2023-04-15T10:55:12;99022.50;;;8.11;100.00
53546;BME280;39432;51.902;10.844;2023-04-15T10:57:44;99025.31;;;8.22;100.00
53546;BME280;39432;51.902;10.844;2023-04-15T11:00:16;99027.50;;;8.19;100.00
53546;BME280;39432;51.902;10.844;2023-04-15T11:02:51;99034.44;;;8.32;100.00
53546;BME280;39432;51.902;10.844;2023-04-15T11:05:47;99049.50;;;8.40;100.00
53546;BME280;39432;51.902;10.844;2023-04-15T11:08:19;99041.88;;;8.37;100.00
53546;BME280;39432;51.902;10.844;2023-04-15T11:10:53;99043.50;;;8.38;100.00
53546;BME280;39432;51.902;10.844;2023-04-15T11:13:26;99043.38;;;8.28;100.00
53546;BME280;39432;51.902;10.844;2023-04-15T11:16:02;99061.88;;;8.26;100.00
53546;BME280;39432;51.902;10.844;2023-04-15T11:18:33;99067.22;;;8.64;100.00
53546;BME280;39432;51.902;10.844;2023-04-15T11:21:06;99066.63;;;8.62;100.00
53546;BME280;39432;51.902;10.844;2023-04-15T11:23:38;99063.50;;;8.76;100.00
53546;BME280;39432;51.902;10.844;2023-04-15T11:26:13;99066.41;;;8.64;100.00
53546;BME280;39432;51.902;10.844;2023-04-15T11:28:45;99062.22;;;8.56;100.00
53546;BME280;39432;51.902;10.844;2023-04-15T11:31:17;99075.91;;;8.61;100.00
53546;BME280;39432;51.902;10.844;2023-04-15T11:33:54;99076.53;;;8.68;100.00
53546;BME280;39432;51.902;10.844;2023-04-15T11:36:27;99080.50;;;8.88;100.00
53546;BME280;39432;51.902;10.844;2023-04-15T11:38:59;99086.81;;;8.61;100.00
53546;BME280;39432;51.902;10.844;2023-04-15T11:41:34;99092.25;;;8.61;100.00
53546;BME280;39432;51.902;10.844;2023-04-15T11:44:15;99098.34;;;8.68;100.00
53546;BME280;39432;51.902;10.844;2023-04-15T11:46:46;99101.00;;;8.90;100.00
53546;BME280;39432;51.902;10.844;2023-04-15T11:49:27;99103.84;;;8.74;100.00
53546;BME280;39432;51.902;10.844;2023-04-15T11:51:59;99109.16;;;8.58;100.00
53546;BME280;39432;51.902;10.844;2023-04-15T11:54:29;99107.47;;;8.52;100.00
53546;BME280;39432;51.902;10.844;2023-04-15T11:57:01;99117.72;;;8.45;100.00
53546;BME280;39432;51.902;10.844;2023-04-15T11:59:40;99123.44;;;8.43;100.00
53546;BME280;39432;51.902;10.844;2023-04-15T12:02:11;99127.59;;;8.51;100.00
53546;BME280;39432;51.902;10.844;2023-04-15T12:04:42;99137.03;;;8.65;100.00
53546;BME280;39432;51.902;10.844;2023-04-15T12:07:12;99140.53;;;8.88;100.00
53546;BME280;39432;51.902;10.844;2023-04-15T12:09:42;99148.44;;;8.89;100.00
53546;BME280;39432;51.902;10.844;2023-04-15T12:12:17;99154.31;;;9.03;100.00
53546;BME280;39432;51.902;10.844;2023-04-15T12:14:50;99155.31;;;8.92;100.00
53546;BME280;39432;51.902;10.844;2023-04-15T12:17:22;99151.09;;;8.79;100.00
53546;BME280;39432;51.902;10.844;2023-04-15T12:19:55;99147.13;;;8.92;100.00
53546;BME280;39432;51.902;10.844;2023-04-15T12:22:25;99154.81;;;9.00;100.00
53546;BME280;39432;51.902;10.844;2023-04-15T12:24:54;99154.78;;;9.27;100.00
53546;BME280;39432;51.902;10.844;2023-04-15T12:27:27;99143.41;;;9.03;100.00
53546;BME280;39432;51.902;10.844;2023-04-15T12:30:03;99149.91;;;8.97;100.00
53546;BME280;39432;51.902;10.844;2023-04-15T12:32:34;99152.03;;;8.95;100.00
53546;BME280;39432;51.902;10.844;2023-04-15T12:35:07;99150.94;;;8.91;100.00
53546;BME280;39432;51.902;10.844;2023-04-15T12:37:36;99155.75;;;8.84;100.00
53546;BME280;39432;51.902;10.844;2023-04-15T12:40:07;99153.28;;;9.09;100.00
53546;BME280;39432;51.902;10.844;2023-04-15T12:42:40;99152.78;;;9.12;100.00
53546;BME280;39432;51.902;10.844;2023-04-15T12:45:10;99160.97;;;9.12;100.00
53546;BME280;39432;51.902;10.844;2023-04-15T12:47:40;99157.34;;;9.39;100.00
53546;BME280;39432;51.902;10.844;2023-04-15T12:50:10;99151.75;;;9.18;100.00
53546;BME280;39432;51.902;10.844;2023-04-15T12:52:39;99161.50;;;9.14;100.00
53546;BME280;39432;51.902;10.844;2023-04-15T12:55:09;99159.94;;;9.18;100.00
53546;BME280;39432;51.902;10.844;2023-04-15T12:57:41;99162.47;;;9.30;100.00
53546;BME280;39432;51.902;10.844;2023-04-15T13:00:12;99165.63;;;8.90;100.00
53546;BME280;39432;51.902;10.844;2023-04-15T13:02:43;99162.66;;;8.91;100.00
53546;BME280;39432;51.902;10.844;2023-04-15T13:05:13;99174.59;;;9.12;100.00
53546;BME280;39432;51.902;10.844;2023-04-15T13:07:43;99166.38;;;9.07;100.00
53546;BME280;39432;51.902;10.844;2023-04-15T13:10:13;99165.63;;;8.85;100.00
53546;BME280;39432;51.902;10.844;2023-04-15T13:12:45;99173.88;;;8.95;100.00
53546;BME280;39432;51.902;10.844;2023-04-15T13:15:19;99180.72;;;8.97;100.00